sensor_id;sensor_type;location;lat;lon;timestamp;P1;durP1;ratioP1;P2;durP2;ratioP2
33672;SDS011;20011;51.510;9.942;2023-05-10T00:00:29;4.85;;;2.20;;
33672;SDS011;20011;51.510;9.942;2023-05-10T00:02:56;4.38;;;2.15;;
33672;SDS011;20011;51.510;9.942;2023-05-10T00:05:23;11.68;;;3.38;;
33672;SDS011;20011;51.510;9.942;2023-05-10T00:07:50;3.22;;;2.35;;
33672;SDS011;20011;51.510;9.942;2023-05-10T00:10:17;5.05;;;2.15;;
33672;SDS011;20011;51.510;9.942;2023-05-10T00:12:44;3.88;;;2.22;;
33672;SDS011;20011;51.510;9.942;2023-05-10T00:15:11;4.05;;;2.03;;
33672;SDS011;20011;51.510;9.942;2023-05-10T00:17:38;3.00;;;1.95;;
33672;SDS011;20011;51.510;9.942;2023-05-10T00:20:05;6.72;;;2.00;;
33672;SDS011;20011;51.510;9.942;2023-05-10T00:22:32;13.13;;;2.72;;
33672;SDS011;20011;51.510;9.942;2023-05-10T00:24:59;10.25;;;2.00;;
33672;SDS011;20011;51.510;9.942;2023-05-10T00:27:26;6.35;;;2.30;;
33672;SDS011;20011;51.510;9.942;2023-05-10T00:29:53;3.55;;;2.10;;
33672;SDS011;20011;51.510;9.942;2023-05-10T00:32:20;2.10;;;1.88;;
33672;SDS011;20011;51.510;9.942;2023-05-10T00:34:47;4.70;;;2.25;;
33672;SDS011;20011;51.510;9.942;2023-05-10T00:37:14;5.85;;;2.55;;
33672;SDS011;20011;51.510;9.942;2023-05-10T00:39:41;3.72;;;2.40;;
33672;SDS011;20011;51.510;9.942;2023-05-10T00:42:07;3.78;;;2.05;;
33672;SDS011;20011;51.510;9.942;2023-05-10T00:44:34;2.13;;;1.85;;
33672;SDS011;20011;51.510;9.942;2023-05-10T00:47:01;7.10;;;2.50;;
33672;SDS011;20011;51.510;9.942;2023-05-10T00:49:29;3.80;;;2.20;;
33672;SDS011;20011;51.510;9.942;2023-05-10T00:51:56;5.13;;;2.40;;
33672;SDS011;20011;51.510;9.942;2023-05-10T00:54:23;3.17;;;2.30;;
33672;SDS011;20011;51.510;9.942;2023-05-10T00:56:50;3.53;;;2.47;;
33672;SDS011;20011;51.510;9.942;2023-05-10T00:59:18;4.63;;;2.55;;
33672;SDS011;20011;51.510;9.942;2023-05-10T01:01:45;3.40;;;2.25;;
33672;SDS011;20011;51.510;9.942;2023-05-10T01:04:13;5.18;;;1.85;;
33672;SDS011;20011;51.510;9.942;2023-05-10T01:06:41;4.80;;;2.50;;
33672;SDS011;20011;51.510;9.942;2023-05-10T01:09:09;4.50;;;2.33;;
33672;SDS011;20011;51.510;9.942;2023-05-10T01:11:38;3.95;;;2.53;;
33672;SDS011;20011;51.510;9.942;2023-05-10T01:14:05;4.70;;;2.47;;
33672;SDS011;20011;51.510;9.942;2023-05-10T01:16:40;2.95;;;1.95;;
33672;SDS011;20011;51.510;9.942;2023-05-10T01:19:19;3.03;;;2.42;;
33672;SDS011;20011;51.510;9.942;2023-05-10T01:38:36;5.30;;;2.40;;
33672;SDS011;20011;51.510;9.942;2023-05-10T01:46:27;7.63;;;2.50;;
33672;SDS011;20011;51.510;9.942;2023-05-10T01:49:02;3.72;;;1.95;;
33672;SDS011;20011;51.510;9.942;2023-05-10T01:51:36;2.33;;;2.10;;
33672;SDS011;20011;51.510;9.942;2023-05-10T01:54:08;4.22;;;2.17;;
33672;SDS011;20011;51.510;9.942;2023-05-10T01:56:38;7.55;;;2.97;;
33672;SDS011;20011;51.510;9.942;2023-05-10T01:59:09;4.43;;;2.63;;
33672;SDS011;20011;51.510;9.942;2023-05-10T02:01:40;6.30;;;2.70;;
33672;SDS011;20011;51.510;9.942;2023-05-10T02:04:09;3.95;;;2.60;;
33672;SDS011;20011;51.510;9.942;2023-05-10T02:06:39;10.48;;;2.38;;
33672;SDS011;20011;51.510;9.942;2023-05-10T02:09:09;3.13;;;2.15;;
33672;SDS011;20011;51.510;9.942;2023-05-10T02:11:38;7.07;;;2.58;;
33672;SDS011;20011;51.510;9.942;2023-05-10T02:14:07;6.47;;;3.33;;
33672;SDS011;20011;51.510;9.942;2023-05-10T02:16:37;3.00;;;2.43;;
33672;SDS011;20011;51.510;9.942;2023-05-10T02:19:05;2.83;;;2.10;;
33672;SDS011;20011;51.510;9.942;2023-05-10T02:21:35;4.88;;;3.03;;
33672;SDS011;20011;51.510;9.942;2023-05-10T02:24:05;3.80;;;2.22;;
33672;SDS011;20011;51.510;9.942;2023-05-10T02:26:33;4.32;;;2.35;;
33672;SDS011;20011;51.510;9.942;2023-05-10T02:29:02;8.45;;;3.88;;
33672;SDS011;20011;51.510;9.942;2023-05-10T02:31:31;4.57;;;2.40;;
33672;SDS011;20011;51.510;9.942;2023-05-10T02:33:59;11.77;;;2.38;;
33672;SDS011;20011;51.510;9.942;2023-05-10T02:36:27;5.25;;;2.55;;
33672;SDS011;20011;51.510;9.942;2023-05-10T02:38:56;5.88;;;2.60;;
33672;SDS011;20011;51.510;9.942;2023-05-10T02:41:24;4.00;;;2.20;;
33672;SDS011;20011;51.510;9.942;2023-05-10T02:43:53;5.28;;;3.00;;
33672;SDS011;20011;51.510;9.942;2023-05-10T02:46:25;6.75;;;3.10;;
33672;SDS011;20011;51.510;9.942;2023-05-10T02:48:52;7.50;;;2.83;;
33672;SDS011;20011;51.510;9.942;2023-05-10T02:51:19;4.97;;;2.60;;
33672;SDS011;20011;51.510;9.942;2023-05-10T02:53:51;2.38;;;2.15;;
33672;SDS011;20011;51.510;9.942;2023-05-10T02:56:40;4.25;;;3.13;;
33672;SDS011;20011;51.510;9.942;2023-05-10T02:59:13;3.75;;;2.38;;
33672;SDS011;20011;51.510;9.942;2023-05-10T03:01:40;6.05;;;3.10;;
33672;SDS011;20011;51.510;9.942;2023-05-10T03:04:07;3.25;;;2.55;;
33672;SDS011;20011;51.510;9.942;2023-05-10T03:06:34;4.32;;;2.70;;
33672;SDS011;20011;51.510;9.942;2023-05-10T03:09:03;3.90;;;2.78;;
33672;SDS011;20011;51.510;9.942;2023-05-10T03:11:43;5.05;;;3.17;;
33672;SDS011;20011;51.510;9.942;2023-05-10T03:17:22;8.88;;;3.53;;
33672;SDS011;20011;51.510;9.942;2023-05-10T03:19:57;3.90;;;2.92;;
33672;SDS011;20011;51.510;9.942;2023-05-10T03:22:26;5.32;;;3.10;;
33672;SDS011;20011;51.510;9.942;2023-05-10T03:25:04;9.82;;;2.97;;
33672;SDS011;20011;51.510;9.942;2023-05-10T03:27:33;6.53;;;2.97;;
33672;SDS011;20011;51.510;9.942;2023-05-10T03:30:02;6.57;;;2.88;;
33672;SDS011;20011;51.510;9.942;2023-05-10T03:35:00;5.45;;;3.67;;
33672;SDS011;20011;51.510;9.942;2023-05-10T03:37:32;4.95;;;2.95;;
33672;SDS011;20011;51.510;9.942;2023-05-10T03:39:59;4.53;;;3.08;;
33672;SDS011;20011;51.510;9.942;2023-05-10T03:42:27;5.82;;;2.80;;
33672;SDS011;20011;51.510;9.942;2023-05-10T03:44:54;5.28;;;3.30;;
33672;SDS011;20011;51.510;9.942;2023-05-10T03:47:21;4.65;;;3.40;;
33672;SDS011;20011;51.510;9.942;2023-05-10T03:49:48;7.38;;;3.60;;
33672;SDS011;20011;51.510;9.942;2023-05-10T03:52:16;4.38;;;3.58;;
33672;SDS011;20011;51.510;9.942;2023-05-10T03:54:43;5.85;;;3.80;;
33672;SDS011;20011;51.510;9.942;2023-05-10T03:57:10;4.80;;;3.50;;
33672;SDS011;20011;51.510;9.942;2023-05-10T03:59:38;5.22;;;3.50;;
33672;SDS011;20011;51.510;9.942;2023-05-10T04:02:05;3.70;;;3.10;;
33672;SDS011;20011;51.510;9.942;2023-05-10T04:04:32;4.75;;;3.95;;
33672;SDS011;20011;51.510;9.942;2023-05-10T04:06:59;7.10;;;3.72;;
33672;SDS011;20011;51.510;9.942;2023-05-10T04:09:26;6.05;;;3.97;;
33672;SDS011;20011;51.510;9.942;2023-05-10T04:11:53;7.30;;;4.00;;
33672;SDS011;20011;51.510;9.942;2023-05-10T04:14:20;4.43;;;3.55;;
33672;SDS011;20011;51.510;9.942;2023-05-10T04:16:47;5.53;;;4.13;;
33672;SDS011;20011;51.510;9.942;2023-05-10T04:19:14;4.47;;;3.90;;
33672;SDS011;20011;51.510;9.942;2023-05-10T04:21:40;9.38;;;4.00;;
33672;SDS011;20011;51.510;9.942;2023-05-10T04:24:07;6.30;;;3.95;;
33672;SDS011;20011;51.510;9.942;2023-05-10T04:26:34;7.50;;;4.20;;
33672;SDS011;20011;51.510;9.942;2023-05-10T04:29:01;8.30;;;4.13;;
33672;SDS011;20011;51.510;9.942;2023-05-10T04:31:28;10.60;;;4.18;;
33672;SDS011;20011;51.510;9.942;2023-05-10T04:33:55;6.03;;;4.40;;
33672;SDS011;20011;51.510;9.942;2023-05-10T04:36:22;7.88;;;4.53;;
33672;SDS011;20011;51.510;9.942;2023-05-10T04:38:49;7.18;;;4.32;;
33672;SDS011;20011;51.510;9.942;2023-05-10T04:41:16;7.47;;;4.80;;
33672;SDS011;20011;51.510;9.942;2023-05-10T04:43:43;5.75;;;4.10;;
33672;SDS011;20011;51.510;9.942;2023-05-10T04:46:10;6.60;;;4.03;;
33672;SDS011;20011;51.510;9.942;2023-05-10T04:48:37;5.38;;;3.80;;
33672;SDS011;20011;51.510;9.942;2023-05-10T04:51:03;8.10;;;4.50;;
33672;SDS011;20011;51.510;9.942;2023-05-10T04:53:32;7.50;;;4.68;;
33672;SDS011;20011;51.510;9.942;2023-05-10T04:55:59;13.68;;;4.80;;
33672;SDS011;20011;51.510;9.942;2023-05-10T04:58:26;6.78;;;4.22;;
33672;SDS011;20011;51.510;9.942;2023-05-10T05:00:53;5.50;;;4.68;;
33672;SDS011;20011;51.510;9.942;2023-05-10T05:03:20;7.22;;;5.15;;
33672;SDS011;20011;51.510;9.942;2023-05-10T05:05:48;11.55;;;5.10;;
33672;SDS011;20011;51.510;9.942;2023-05-10T05:08:15;11.77;;;5.03;;
33672;SDS011;20011;51.510;9.942;2023-05-10T05:10:42;9.38;;;6.32;;
33672;SDS011;20011;51.510;9.942;2023-05-10T05:13:09;10.52;;;5.93;;
33672;SDS011;20011;51.510;9.942;2023-05-10T05:15:36;9.57;;;5.53;;
33672;SDS011;20011;51.510;9.942;2023-05-10T05:18:03;9.27;;;4.88;;
33672;SDS011;20011;51.510;9.942;2023-05-10T05:20:31;7.68;;;5.15;;
33672;SDS011;20011;51.510;9.942;2023-05-10T05:23:01;8.55;;;5.70;;
33672;SDS011;20011;51.510;9.942;2023-05-10T05:25:28;10.80;;;5.20;;
33672;SDS011;20011;51.510;9.942;2023-05-10T05:27:55;9.90;;;5.80;;
33672;SDS011;20011;51.510;9.942;2023-05-10T05:30:22;8.50;;;5.32;;
33672;SDS011;20011;51.510;9.942;2023-05-10T05:32:49;8.98;;;4.97;;
33672;SDS011;20011;51.510;9.942;2023-05-10T05:35:16;8.63;;;5.20;;
33672;SDS011;20011;51.510;9.942;2023-05-10T05:37:43;7.93;;;5.53;;
33672;SDS011;20011;51.510;9.942;2023-05-10T05:40:12;7.65;;;5.95;;
33672;SDS011;20011;51.510;9.942;2023-05-10T05:42:39;7.60;;;5.53;;
33672;SDS011;20011;51.510;9.942;2023-05-10T05:45:06;7.57;;;4.78;;
33672;SDS011;20011;51.510;9.942;2023-05-10T05:47:35;7.95;;;5.22;;
33672;SDS011;20011;51.510;9.942;2023-05-10T05:50:01;10.88;;;5.75;;
33672;SDS011;20011;51.510;9.942;2023-05-10T05:52:28;5.65;;;4.72;;
33672;SDS011;20011;51.510;9.942;2023-05-10T05:54:56;9.70;;;5.22;;
33672;SDS011;20011;51.510;9.942;2023-05-10T05:57:23;10.23;;;5.22;;
33672;SDS011;20011;51.510;9.942;2023-05-10T05:59:50;5.90;;;5.28;;
33672;SDS011;20011;51.510;9.942;2023-05-10T06:02:16;5.50;;;4.88;;
33672;SDS011;20011;51.510;9.942;2023-05-10T06:04:43;7.15;;;5.18;;
33672;SDS011;20011;51.510;9.942;2023-05-10T06:07:10;7.82;;;5.30;;
33672;SDS011;20011;51.510;9.942;2023-05-10T06:09:37;5.22;;;4.45;;
33672;SDS011;20011;51.510;9.942;2023-05-10T06:12:04;5.60;;;4.80;;
33672;SDS011;20011;51.510;9.942;2023-05-10T06:14:31;5.40;;;4.50;;
33672;SDS011;20011;51.510;9.942;2023-05-10T06:16:58;6.88;;;5.35;;
33672;SDS011;20011;51.510;9.942;2023-05-10T06:19:26;5.93;;;4.90;;
33672;SDS011;20011;51.510;9.942;2023-05-10T06:21:53;7.57;;;5.10;;
33672;SDS011;20011;51.510;9.942;2023-05-10T06:24:20;5.97;;;4.53;;
33672;SDS011;20011;51.510;9.942;2023-05-10T06:26:47;7.28;;;4.60;;
33672;SDS011;20011;51.510;9.942;2023-05-10T06:29:16;6.72;;;4.95;;
33672;SDS011;20011;51.510;9.942;2023-05-10T06:31:43;7.53;;;4.63;;
33672;SDS011;20011;51.510;9.942;2023-05-10T06:34:09;6.53;;;4.60;;
33672;SDS011;20011;51.510;9.942;2023-05-10T06:36:37;8.35;;;4.38;;
33672;SDS011;20011;51.510;9.942;2023-05-10T06:39:05;7.18;;;4.38;;
33672;SDS011;20011;51.510;9.942;2023-05-10T06:41:31;8.02;;;4.30;;
33672;SDS011;20011;51.510;9.942;2023-05-10T06:43:58;6.80;;;4.75;;
33672;SDS011;20011;51.510;9.942;2023-05-10T06:46:25;6.65;;;4.38;;
33672;SDS011;20011;51.510;9.942;2023-05-10T06:48:52;9.40;;;4.30;;
33672;SDS011;20011;51.510;9.942;2023-05-10T06:51:19;5.30;;;3.88;;
33672;SDS011;20011;51.510;9.942;2023-05-10T06:53:47;4.38;;;3.58;;
33672;SDS011;20011;51.510;9.942;2023-05-10T06:56:14;5.35;;;3.25;;
33672;SDS011;20011;51.510;9.942;2023-05-10T06:58:41;7.90;;;3.40;;
33672;SDS011;20011;51.510;9.942;2023-05-10T07:01:07;3.08;;;2.65;;
33672;SDS011;20011;51.510;9.942;2023-05-10T07:03:35;4.35;;;2.50;;
33672;SDS011;20011;51.510;9.942;2023-05-10T07:06:02;2.25;;;1.75;;
33672;SDS011;20011;51.510;9.942;2023-05-10T07:08:30;2.20;;;1.58;;
33672;SDS011;20011;51.510;9.942;2023-05-10T07:11:02;4.13;;;1.52;;
33672;SDS011;20011;51.510;9.942;2023-05-10T07:13:30;1.38;;;1.10;;
33672;SDS011;20011;51.510;9.942;2023-05-10T07:15:58;0.88;;;0.88;;
33672;SDS011;20011;51.510;9.942;2023-05-10T07:18:25;2.72;;;0.50;;
33672;SDS011;20011;51.510;9.942;2023-05-10T07:20:52;0.68;;;0.60;;
33672;SDS011;20011;51.510;9.942;2023-05-10T07:23:19;0.88;;;0.70;;
33672;SDS011;20011;51.510;9.942;2023-05-10T07:25:47;1.67;;;0.60;;
33672;SDS011;20011;51.510;9.942;2023-05-10T07:28:15;2.55;;;0.50;;
33672;SDS011;20011;51.510;9.942;2023-05-10T07:30:42;0.70;;;0.70;;
33672;SDS011;20011;51.510;9.942;2023-05-10T07:33:10;0.55;;;0.55;;
33672;SDS011;20011;51.510;9.942;2023-05-10T07:35:39;0.65;;;0.45;;
33672;SDS011;20011;51.510;9.942;2023-05-10T07:38:06;0.40;;;0.40;;
33672;SDS011;20011;51.510;9.942;2023-05-10T07:40:33;0.50;;;0.30;;
33672;SDS011;20011;51.510;9.942;2023-05-10T07:43:00;0.50;;;0.32;;
33672;SDS011;20011;51.510;9.942;2023-05-10T07:45:28;2.60;;;0.45;;
33672;SDS011;20011;51.510;9.942;2023-05-10T07:47:55;1.38;;;0.52;;
33672;SDS011;20011;51.510;9.942;2023-05-10T07:50:22;0.88;;;0.50;;
33672;SDS011;20011;51.510;9.942;2023-05-10T07:52:49;0.55;;;0.40;;
33672;SDS011;20011;51.510;9.942;2023-05-10T07:55:17;0.40;;;0.40;;
33672;SDS011;20011;51.510;9.942;2023-05-10T07:57:46;0.30;;;0.30;;
33672;SDS011;20011;51.510;9.942;2023-05-10T08:00:13;0.50;;;0.50;;
33672;SDS011;20011;51.510;9.942;2023-05-10T08:02:44;0.40;;;0.40;;
33672;SDS011;20011;51.510;9.942;2023-05-10T08:05:11;0.35;;;0.35;;
33672;SDS011;20011;51.510;9.942;2023-05-10T08:07:38;0.98;;;0.55;;
33672;SDS011;20011;51.510;9.942;2023-05-10T08:10:05;1.38;;;0.57;;
33672;SDS011;20011;51.510;9.942;2023-05-10T08:12:33;0.55;;;0.50;;
33672;SDS011;20011;51.510;9.942;2023-05-10T08:15:00;0.63;;;0.63;;
33672;SDS011;20011;51.510;9.942;2023-05-10T08:17:28;1.23;;;0.47;;
33672;SDS011;20011;51.510;9.942;2023-05-10T08:19:55;0.98;;;0.30;;
33672;SDS011;20011;51.510;9.942;2023-05-10T08:22:22;0.32;;;0.32;;
33672;SDS011;20011;51.510;9.942;2023-05-10T08:24:49;0.80;;;0.50;;
33672;SDS011;20011;51.510;9.942;2023-05-10T08:27:16;0.50;;;0.50;;
33672;SDS011;20011;51.510;9.942;2023-05-10T08:29:43;1.85;;;0.55;;
33672;SDS011;20011;51.510;9.942;2023-05-10T08:32:15;0.60;;;0.60;;
33672;SDS011;20011;51.510;9.942;2023-05-10T08:34:42;0.88;;;0.88;;
33672;SDS011;20011;51.510;9.942;2023-05-10T08:37:09;4.15;;;0.68;;
33672;SDS011;20011;51.510;9.942;2023-05-10T08:42:07;3.00;;;0.70;;
33672;SDS011;20011;51.510;9.942;2023-05-10T08:44:35;1.20;;;0.60;;
33672;SDS011;20011;51.510;9.942;2023-05-10T08:47:06;1.40;;;0.82;;
33672;SDS011;20011;51.510;9.942;2023-05-10T08:49:36;6.90;;;0.90;;
33672;SDS011;20011;51.510;9.942;2023-05-10T08:52:04;0.60;;;0.50;;
33672;SDS011;20011;51.510;9.942;2023-05-10T08:54:33;0.50;;;0.50;;
33672;SDS011;20011;51.510;9.942;2023-05-10T08:57:00;3.35;;;0.70;;
33672;SDS011;20011;51.510;9.942;2023-05-10T08:59:28;0.55;;;0.55;;
33672;SDS011;20011;51.510;9.942;2023-05-10T09:01:57;0.60;;;0.60;;
33672;SDS011;20011;51.510;9.942;2023-05-10T09:04:25;1.50;;;0.53;;
33672;SDS011;20011;51.510;9.942;2023-05-10T09:06:52;0.80;;;0.80;;
33672;SDS011;20011;51.510;9.942;2023-05-10T09:09:19;1.70;;;0.80;;
33672;SDS011;20011;51.510;9.942;2023-05-10T09:11:47;4.07;;;0.75;;
33672;SDS011;20011;51.510;9.942;2023-05-10T09:14:14;3.45;;;0.80;;
33672;SDS011;20011;51.510;9.942;2023-05-10T09:16:42;0.77;;;0.70;;
33672;SDS011;20011;51.510;9.942;2023-05-10T09:19:09;0.68;;;0.63;;
33672;SDS011;20011;51.510;9.942;2023-05-10T09:21:37;4.85;;;0.80;;
33672;SDS011;20011;51.510;9.942;2023-05-10T09:24:07;1.08;;;0.50;;
33672;SDS011;20011;51.510;9.942;2023-05-10T09:26:35;1.02;;;0.88;;
33672;SDS011;20011;51.510;9.942;2023-05-10T09:29:12;0.93;;;0.65;;
33672;SDS011;20011;51.510;9.942;2023-05-10T09:34:17;0.70;;;0.70;;
33672;SDS011;20011;51.510;9.942;2023-05-10T09:36:52;1.58;;;0.60;;
33672;SDS011;20011;51.510;9.942;2023-05-10T09:39:20;1.17;;;0.60;;
33672;SDS011;20011;51.510;9.942;2023-05-10T09:41:56;1.05;;;0.73;;
33672;SDS011;20011;51.510;9.942;2023-05-10T09:44:25;1.13;;;0.85;;
33672;SDS011;20011;51.510;9.942;2023-05-10T09:46:53;1.33;;;0.90;;
33672;SDS011;20011;51.510;9.942;2023-05-10T09:49:20;1.23;;;0.82;;
33672;SDS011;20011;51.510;9.942;2023-05-10T09:51:59;1.17;;;0.60;;
33672;SDS011;20011;51.510;9.942;2023-05-10T09:54:27;0.60;;;0.60;;
33672;SDS011;20011;51.510;9.942;2023-05-10T09:56:54;0.52;;;0.52;;
33672;SDS011;20011;51.510;9.942;2023-05-10T09:59:21;1.42;;;0.70;;
33672;SDS011;20011;51.510;9.942;2023-05-10T10:01:53;1.77;;;0.70;;
33672;SDS011;20011;51.510;9.942;2023-05-10T10:07:00;0.40;;;0.40;;
33672;SDS011;20011;51.510;9.942;2023-05-10T10:09:31;5.38;;;0.73;;
33672;SDS011;20011;51.510;9.942;2023-05-10T10:11:59;3.50;;;0.73;;
33672;SDS011;20011;51.510;9.942;2023-05-10T10:14:26;2.08;;;0.70;;
33672;SDS011;20011;51.510;9.942;2023-05-10T10:16:55;3.55;;;0.60;;
33672;SDS011;20011;51.510;9.942;2023-05-10T10:19:34;0.90;;;0.70;;
33672;SDS011;20011;51.510;9.942;2023-05-10T10:22:02;0.70;;;0.70;;
33672;SDS011;20011;51.510;9.942;2023-05-10T10:24:29;1.20;;;0.90;;
33672;SDS011;20011;51.510;9.942;2023-05-10T10:26:57;1.00;;;0.85;;
33672;SDS011;20011;51.510;9.942;2023-05-10T10:29:40;0.90;;;0.70;;
33672;SDS011;20011;51.510;9.942;2023-05-10T10:32:27;2.30;;;0.52;;
33672;SDS011;20011;51.510;9.942;2023-05-10T10:35:07;2.35;;;0.82;;
33672;SDS011;20011;51.510;9.942;2023-05-10T10:37:44;1.63;;;0.60;;
33672;SDS011;20011;51.510;9.942;2023-05-10T10:40:25;0.52;;;0.50;;
33672;SDS011;20011;51.510;9.942;2023-05-10T10:42:54;0.55;;;0.55;;
33672;SDS011;20011;51.510;9.942;2023-05-10T10:45:22;0.60;;;0.60;;
33672;SDS011;20011;51.510;9.942;2023-05-10T10:50:55;1.80;;;1.25;;
33672;SDS011;20011;51.510;9.942;2023-05-10T10:53:27;2.67;;;0.88;;
33672;SDS011;20011;51.510;9.942;2023-05-10T10:56:05;3.10;;;0.85;;
33672;SDS011;20011;51.510;9.942;2023-05-10T10:58:34;1.73;;;0.60;;
33672;SDS011;20011;51.510;9.942;2023-05-10T11:01:15;0.95;;;0.80;;
33672;SDS011;20011;51.510;9.942;2023-05-10T11:06:32;2.80;;;0.80;;
33672;SDS011;20011;51.510;9.942;2023-05-10T11:09:07;1.45;;;0.90;;
33672;SDS011;20011;51.510;9.942;2023-05-10T11:11:35;3.90;;;1.00;;
33672;SDS011;20011;51.510;9.942;2023-05-10T11:14:14;1.63;;;1.13;;
33672;SDS011;20011;51.510;9.942;2023-05-10T11:16:45;3.28;;;1.13;;
33672;SDS011;20011;51.510;9.942;2023-05-10T11:19:13;1.90;;;0.90;;
33672;SDS011;20011;51.510;9.942;2023-05-10T11:21:51;3.22;;;1.10;;
33672;SDS011;20011;51.510;9.942;2023-05-10T11:24:39;2.47;;;1.17;;
33672;SDS011;20011;51.510;9.942;2023-05-10T11:27:22;3.80;;;0.80;;
33672;SDS011;20011;51.510;9.942;2023-05-10T11:29:52;5.93;;;1.40;;
33672;SDS011;20011;51.510;9.942;2023-05-10T11:32:19;0.77;;;0.75;;
33672;SDS011;20011;51.510;9.942;2023-05-10T11:34:47;1.70;;;0.77;;
33672;SDS011;20011;51.510;9.942;2023-05-10T11:37:14;1.00;;;0.70;;
33672;SDS011;20011;51.510;9.942;2023-05-10T11:39:45;1.42;;;0.60;;
33672;SDS011;20011;51.510;9.942;2023-05-10T11:42:13;1.48;;;0.85;;
33672;SDS011;20011;51.510;9.942;2023-05-10T11:44:40;1.20;;;1.08;;
33672;SDS011;20011;51.510;9.942;2023-05-10T11:47:08;1.50;;;1.10;;
33672;SDS011;20011;51.510;9.942;2023-05-10T11:49:35;1.55;;;1.20;;
33672;SDS011;20011;51.510;9.942;2023-05-10T11:52:05;1.30;;;1.10;;
33672;SDS011;20011;51.510;9.942;2023-05-10T11:54:33;1.27;;;1.00;;
33672;SDS011;20011;51.510;9.942;2023-05-10T11:57:01;2.17;;;1.00;;
33672;SDS011;20011;51.510;9.942;2023-05-10T11:59:28;1.08;;;1.08;;
33672;SDS011;20011;51.510;9.942;2023-05-10T12:01:55;6.35;;;1.15;;
33672;SDS011;20011;51.510;9.942;2023-05-10T12:04:22;2.08;;;1.08;;
33672;SDS011;20011;51.510;9.942;2023-05-10T12:06:49;2.67;;;1.20;;
33672;SDS011;20011;51.510;9.942;2023-05-10T12:09:16;1.25;;;0.90;;
33672;SDS011;20011;51.510;9.942;2023-05-10T12:11:57;4.13;;;1.00;;
33672;SDS011;20011;51.510;9.942;2023-05-10T12:14:23;3.25;;;1.27;;
33672;SDS011;20011;51.510;9.942;2023-05-10T12:16:50;3.10;;;1.90;;
33672;SDS011;20011;51.510;9.942;2023-05-10T12:19:18;2.40;;;1.65;;
33672;SDS011;20011;51.510;9.942;2023-05-10T12:21:46;2.10;;;1.70;;
33672;SDS011;20011;51.510;9.942;2023-05-10T12:24:14;2.55;;;2.05;;
33672;SDS011;20011;51.510;9.942;2023-05-10T12:26:45;1.90;;;1.38;;
33672;SDS011;20011;51.510;9.942;2023-05-10T12:29:14;3.15;;;1.77;;
33672;SDS011;20011;51.510;9.942;2023-05-10T12:31:48;3.88;;;2.25;;
33672;SDS011;20011;51.510;9.942;2023-05-10T12:34:26;3.50;;;2.17;;
33672;SDS011;20011;51.510;9.942;2023-05-10T12:36:57;2.80;;;2.20;;
33672;SDS011;20011;51.510;9.942;2023-05-10T12:39:24;3.72;;;2.55;;
33672;SDS011;20011;51.510;9.942;2023-05-10T12:41:51;3.30;;;2.10;;
33672;SDS011;20011;51.510;9.942;2023-05-10T12:44:18;4.47;;;2.60;;
33672;SDS011;20011;51.510;9.942;2023-05-10T12:46:45;3.95;;;3.05;;
33672;SDS011;20011;51.510;9.942;2023-05-10T12:49:12;4.32;;;2.63;;
33672;SDS011;20011;51.510;9.942;2023-05-10T12:51:39;2.67;;;2.40;;
33672;SDS011;20011;51.510;9.942;2023-05-10T12:54:06;2.80;;;2.58;;
33672;SDS011;20011;51.510;9.942;2023-05-10T12:56:33;4.32;;;2.83;;
33672;SDS011;20011;51.510;9.942;2023-05-10T12:59:00;6.07;;;3.33;;
33672;SDS011;20011;51.510;9.942;2023-05-10T13:01:27;3.35;;;2.65;;
33672;SDS011;20011;51.510;9.942;2023-05-10T13:03:54;3.03;;;2.72;;
33672;SDS011;20011;51.510;9.942;2023-05-10T13:06:21;6.63;;;3.30;;
33672;SDS011;20011;51.510;9.942;2023-05-10T13:08:48;3.15;;;2.33;;
33672;SDS011;20011;51.510;9.942;2023-05-10T13:11:15;3.95;;;2.45;;
33672;SDS011;20011;51.510;9.942;2023-05-10T13:13:43;2.63;;;1.95;;
33672;SDS011;20011;51.510;9.942;2023-05-10T13:16:10;2.58;;;1.67;;
33672;SDS011;20011;51.510;9.942;2023-05-10T13:18:37;2.30;;;2.00;;
33672;SDS011;20011;51.510;9.942;2023-05-10T13:21:04;8.15;;;2.88;;
33672;SDS011;20011;51.510;9.942;2023-05-10T13:23:31;6.15;;;2.40;;
33672;SDS011;20011;51.510;9.942;2023-05-10T13:25:58;5.18;;;2.63;;
33672;SDS011;20011;51.510;9.942;2023-05-10T13:28:25;2.95;;;2.10;;
33672;SDS011;20011;51.510;9.942;2023-05-10T13:30:52;4.35;;;2.42;;
33672;SDS011;20011;51.510;9.942;2023-05-10T13:33:19;5.28;;;3.08;;
33672;SDS011;20011;51.510;9.942;2023-05-10T13:35:46;2.50;;;2.00;;
33672;SDS011;20011;51.510;9.942;2023-05-10T13:38:13;2.97;;;1.77;;
33672;SDS011;20011;51.510;9.942;2023-05-10T13:40:40;2.45;;;1.75;;
33672;SDS011;20011;51.510;9.942;2023-05-10T13:43:07;1.88;;;1.73;;
33672;SDS011;20011;51.510;9.942;2023-05-10T13:45:34;2.47;;;1.95;;
33672;SDS011;20011;51.510;9.942;2023-05-10T13:48:00;2.83;;;2.20;;
33672;SDS011;20011;51.510;9.942;2023-05-10T13:50:27;3.60;;;3.20;;
33672;SDS011;20011;51.510;9.942;2023-05-10T13:52:54;3.70;;;3.00;;
33672;SDS011;20011;51.510;9.942;2023-05-10T13:55:21;6.55;;;3.83;;
33672;SDS011;20011;51.510;9.942;2023-05-10T13:57:48;5.07;;;3.17;;
33672;SDS011;20011;51.510;9.942;2023-05-10T14:00:15;4.75;;;3.65;;
33672;SDS011;20011;51.510;9.942;2023-05-10T14:02:43;4.53;;;3.38;;
33672;SDS011;20011;51.510;9.942;2023-05-10T14:05:10;5.07;;;3.40;;
33672;SDS011;20011;51.510;9.942;2023-05-10T14:07:38;3.28;;;2.85;;
33672;SDS011;20011;51.510;9.942;2023-05-10T14:10:05;4.18;;;3.30;;
33672;SDS011;20011;51.510;9.942;2023-05-10T14:12:32;3.47;;;2.80;;
33672;SDS011;20011;51.510;9.942;2023-05-10T14:14:59;3.85;;;3.20;;
33672;SDS011;20011;51.510;9.942;2023-05-10T14:17:26;5.85;;;3.40;;
33672;SDS011;20011;51.510;9.942;2023-05-10T14:19:53;4.10;;;3.03;;
33672;SDS011;20011;51.510;9.942;2023-05-10T14:22:20;4.38;;;3.10;;
33672;SDS011;20011;51.510;9.942;2023-05-10T14:24:48;4.75;;;3.58;;
33672;SDS011;20011;51.510;9.942;2023-05-10T14:27:15;3.00;;;2.38;;
33672;SDS011;20011;51.510;9.942;2023-05-10T14:29:42;4.75;;;1.92;;
33672;SDS011;20011;51.510;9.942;2023-05-10T14:32:09;5.85;;;3.20;;
33672;SDS011;20011;51.510;9.942;2023-05-10T14:34:36;2.92;;;2.38;;
33672;SDS011;20011;51.510;9.942;2023-05-10T14:37:03;11.70;;;3.90;;
33672;SDS011;20011;51.510;9.942;2023-05-10T14:39:30;5.70;;;3.92;;
33672;SDS011;20011;51.510;9.942;2023-05-10T14:41:59;2.53;;;2.30;;
33672;SDS011;20011;51.510;9.942;2023-05-10T14:44:26;5.50;;;3.65;;
33672;SDS011;20011;51.510;9.942;2023-05-10T14:46:53;5.22;;;2.90;;
33672;SDS011;20011;51.510;9.942;2023-05-10T14:49:19;3.50;;;2.75;;
33672;SDS011;20011;51.510;9.942;2023-05-10T14:51:48;5.07;;;3.95;;
33672;SDS011;20011;51.510;9.942;2023-05-10T14:54:15;6.18;;;4.00;;
33672;SDS011;20011;51.510;9.942;2023-05-10T14:56:42;7.70;;;4.13;;
33672;SDS011;20011;51.510;9.942;2023-05-10T14:59:09;5.32;;;3.88;;
33672;SDS011;20011;51.510;9.942;2023-05-10T15:01:37;7.18;;;4.75;;
33672;SDS011;20011;51.510;9.942;2023-05-10T15:04:04;3.72;;;3.05;;
33672;SDS011;20011;51.510;9.942;2023-05-10T15:06:33;6.03;;;4.07;;
33672;SDS011;20011;51.510;9.942;2023-05-10T15:09:04;3.75;;;3.00;;
33672;SDS011;20011;51.510;9.942;2023-05-10T15:11:31;4.30;;;3.10;;
33672;SDS011;20011;51.510;9.942;2023-05-10T15:13:58;4.22;;;2.97;;
33672;SDS011;20011;51.510;9.942;2023-05-10T15:16:25;6.20;;;3.20;;
33672;SDS011;20011;51.510;9.942;2023-05-10T15:18:52;6.43;;;3.15;;
33672;SDS011;20011;51.510;9.942;2023-05-10T15:21:19;2.80;;;2.45;;
33672;SDS011;20011;51.510;9.942;2023-05-10T15:23:46;3.70;;;2.00;;
33672;SDS011;20011;51.510;9.942;2023-05-10T15:26:14;2.80;;;2.00;;
33672;SDS011;20011;51.510;9.942;2023-05-10T15:28:41;4.15;;;2.28;;
33672;SDS011;20011;51.510;9.942;2023-05-10T15:31:09;3.20;;;1.80;;
33672;SDS011;20011;51.510;9.942;2023-05-10T15:33:37;2.08;;;1.77;;
33672;SDS011;20011;51.510;9.942;2023-05-10T15:36:04;4.95;;;1.98;;